createdAt,value
2017-08-01T00:00:23.201Z,23.21
2017-08-01T00:02:50.661Z,23.24
2017-08-01T00:05:18.129Z,23.32
2017-08-01T00:07:45.573Z,23.40
2017-08-01T00:10:13.046Z,23.48
2017-08-01T00:12:40.653Z,23.59
2017-08-01T00:15:08.097Z,23.33
2017-08-01T00:17:35.537Z,23.20
2017-08-01T00:20:03.337Z,23.13
2017-08-01T00:22:30.786Z,23.05
2017-08-01T00:24:58.237Z,23.08
2017-08-01T00:27:25.724Z,23.10
2017-08-01T00:29:53.168Z,23.10
2017-08-01T00:32:20.618Z,23.11
2017-08-01T00:34:48.101Z,23.13
2017-08-01T00:37:15.557Z,22.97
2017-08-01T00:39:43.133Z,23.06
2017-08-01T00:42:10.583Z,23.15
2017-08-01T00:44:38.046Z,23.04
2017-08-01T00:47:05.817Z,22.93
2017-08-01T00:49:33.271Z,22.92
2017-08-01T00:52:00.887Z,22.88
2017-08-01T00:54:28.346Z,22.99
2017-08-01T00:56:56.104Z,22.95
2017-08-01T00:59:23.577Z,22.89
2017-08-01T01:01:51.057Z,22.90
2017-08-01T01:04:18.516Z,22.47
2017-08-01T01:06:46.181Z,22.42
2017-08-01T01:09:13.623Z,22.49
2017-08-01T01:11:41.070Z,22.52
2017-08-01T01:14:08.689Z,22.63
2017-08-01T01:16:36.128Z,22.54
2017-08-01T01:19:03.572Z,22.52
2017-08-01T01:21:31.029Z,22.49
2017-08-01T01:23:58.477Z,22.44
2017-08-01T01:26:25.985Z,22.19
2017-08-01T01:28:53.429Z,22.21
2017-08-01T01:31:20.886Z,22.36
2017-08-01T01:33:48.364Z,22.40
2017-08-01T01:36:15.812Z,22.29
2017-08-01T01:38:43.596Z,22.08
2017-08-01T01:41:11.037Z,22.21
2017-08-01T01:43:38.489Z,22.09
2017-08-01T01:46:06.286Z,22.06
2017-08-01T01:48:33.738Z,21.99
2017-08-01T01:51:01.184Z,21.90
2017-08-01T01:53:28.672Z,21.84
2017-08-01T01:55:56.239Z,21.91
2017-08-01T01:58:23.689Z,22.17
2017-08-01T02:00:51.127Z,22.24
2017-08-01T02:03:18.801Z,22.27
2017-08-01T02:05:46.235Z,22.21
2017-08-01T02:08:13.677Z,22.33
2017-08-01T02:10:41.140Z,22.26
2017-08-01T02:13:08.591Z,22.27
2017-08-01T02:15:36.415Z,22.18
2017-08-01T02:18:03.860Z,22.20
2017-08-01T02:20:31.298Z,22.17
2017-08-01T02:22:58.773Z,22.01
2017-08-01T02:25:26.216Z,22.08
2017-08-01T02:27:53.664Z,22.10
2017-08-01T02:30:21.154Z,21.96
2017-08-01T02:32:48.596Z,22.08
2017-08-01T02:35:16.049Z,22.31
2017-08-01T02:37:43.525Z,22.33
2017-08-01T02:40:10.991Z,22.20
2017-08-01T02:42:38.461Z,22.02
2017-08-01T02:45:05.914Z,21.99
2017-08-01T02:47:33.397Z,21.93
2017-08-01T02:50:00.835Z,21.88
2017-08-01T02:52:28.297Z,22.03
2017-08-01T02:54:55.773Z,22.00
2017-08-01T02:57:23.245Z,22.19
2017-08-01T02:59:50.694Z,21.77
2017-08-01T03:02:18.161Z,21.86
2017-08-01T03:04:45.606Z,21.85
2017-08-01T03:07:13.052Z,22.28
2017-08-01T03:09:40.529Z,22.05
2017-08-01T03:12:07.976Z,22.09
2017-08-01T03:14:35.420Z,22.28
2017-08-01T03:17:02.886Z,22.89
2017-08-01T03:19:30.356Z,23.22
2017-08-01T03:21:57.802Z,22.36
2017-08-01T03:24:25.269Z,23.49
2017-08-01T03:26:52.708Z,22.90
2017-08-01T03:29:20.157Z,22.55
2017-08-01T03:31:47.624Z,22.62
2017-08-01T03:34:15.063Z,22.65
2017-08-01T03:36:42.537Z,22.69
2017-08-01T03:39:10.361Z,22.31
2017-08-01T03:41:37.807Z,22.47
2017-08-01T03:44:05.260Z,22.47
2017-08-01T03:46:32.740Z,22.02
2017-08-01T03:49:00.208Z,21.83
2017-08-01T03:51:27.710Z,21.71
2017-08-01T03:53:55.172Z,21.82
2017-08-01T03:56:22.642Z,21.76
2017-08-01T03:58:50.087Z,21.84
2017-08-01T04:01:17.560Z,21.83
2017-08-01T04:03:45.021Z,21.84
2017-08-01T04:06:12.496Z,21.09
2017-08-01T04:08:39.937Z,21.08
2017-08-01T04:11:07.404Z,21.14
2017-08-01T04:13:34.987Z,21.36
2017-08-01T04:16:02.433Z,21.70
2017-08-01T04:18:29.872Z,21.71
2017-08-01T04:20:57.348Z,21.79
2017-08-01T04:23:24.828Z,22.00
2017-08-01T04:25:52.278Z,22.06
2017-08-01T04:28:19.944Z,22.06
2017-08-01T04:30:47.381Z,22.13
2017-08-01T04:33:14.816Z,22.15
2017-08-01T04:35:42.280Z,22.21
2017-08-01T04:38:09.757Z,22.40
2017-08-01T04:40:37.215Z,22.42
2017-08-01T04:43:04.681Z,22.50
2017-08-01T04:45:32.128Z,22.56
2017-08-01T04:47:59.857Z,22.53
2017-08-01T04:50:27.300Z,22.60
2017-08-01T04:52:54.750Z,22.52
2017-08-01T04:55:22.223Z,22.52
2017-08-01T04:57:49.688Z,22.55
2017-08-01T05:00:17.127Z,22.68
2017-08-01T05:02:44.600Z,22.94
2017-08-01T05:05:12.060Z,22.94
2017-08-01T05:07:39.520Z,23.15
2017-08-01T05:10:06.994Z,23.26
2017-08-01T05:12:34.465Z,23.29
2017-08-01T05:15:01.909Z,23.38
2017-08-01T05:17:29.360Z,23.50
2017-08-01T05:19:56.839Z,23.50
2017-08-01T05:22:24.285Z,23.45
2017-08-01T05:24:52.061Z,23.46
2017-08-01T05:27:19.501Z,23.45
2017-08-01T05:29:46.962Z,23.52
2017-08-01T05:32:14.431Z,23.79
2017-08-01T05:34:41.901Z,23.84
2017-08-01T05:37:09.363Z,23.87
2017-08-01T05:39:36.837Z,23.94
2017-08-01T05:42:04.293Z,24.03
2017-08-01T05:44:31.749Z,24.08
2017-08-01T05:46:59.233Z,24.17
2017-08-01T05:49:26.682Z,24.42
2017-08-01T05:51:54.130Z,24.43
2017-08-01T05:54:21.823Z,24.43
2017-08-01T05:56:49.275Z,24.56
2017-08-01T05:59:16.720Z,24.47
2017-08-01T06:01:44.571Z,24.61
2017-08-01T06:04:12.012Z,24.69
2017-08-01T06:06:39.449Z,24.90
2017-08-01T06:09:06.941Z,24.86
2017-08-01T06:11:34.721Z,24.90
2017-08-01T06:14:02.168Z,25.04
2017-08-01T06:16:29.616Z,25.13
2017-08-01T06:18:57.089Z,25.20
2017-08-01T06:21:24.556Z,25.25
2017-08-01T06:23:52.000Z,25.23
2017-08-01T06:26:19.450Z,25.57
2017-08-01T06:28:47.244Z,25.66
2017-08-01T06:31:14.696Z,25.65
2017-08-01T06:33:42.145Z,25.61
2017-08-01T06:36:10.254Z,25.63
2017-08-01T06:38:37.710Z,25.85
2017-08-01T06:41:05.181Z,25.87
2017-08-01T06:43:32.622Z,25.81
2017-08-01T06:46:00.064Z,26.01
2017-08-01T06:48:27.549Z,26.17
2017-08-01T06:50:55.116Z,26.12
2017-08-01T06:53:22.585Z,26.38
2017-08-01T06:55:50.041Z,26.55
2017-08-01T06:58:17.508Z,26.74
2017-08-01T07:00:44.979Z,26.80
2017-08-01T07:03:12.455Z,26.94
2017-08-01T07:05:39.909Z,27.07
2017-08-01T07:08:07.388Z,26.97
2017-08-01T07:10:34.833Z,27.19
2017-08-01T07:13:02.317Z,27.49
2017-08-01T07:15:29.793Z,27.67
2017-08-01T07:17:57.244Z,27.92
2017-08-01T07:20:24.713Z,27.80
2017-08-01T07:22:52.156Z,27.98
2017-08-01T07:25:19.639Z,28.00
2017-08-01T07:27:47.076Z,28.11
2017-08-01T07:30:14.525Z,28.14
2017-08-01T07:32:41.987Z,28.30
2017-08-01T07:35:09.465Z,28.27
2017-08-01T07:37:36.913Z,28.33
2017-08-01T07:40:04.385Z,28.52
2017-08-01T07:42:31.820Z,28.52
2017-08-01T07:44:59.267Z,28.67
2017-08-01T07:47:26.736Z,28.66
2017-08-01T07:49:54.187Z,28.72
2017-08-01T07:52:21.657Z,28.48
2017-08-01T07:54:49.107Z,28.79
2017-08-01T07:57:16.721Z,29.10
2017-08-01T07:59:44.158Z,29.22
2017-08-01T08:02:11.616Z,29.21
2017-08-01T08:04:39.115Z,29.37
2017-08-01T08:07:06.561Z,29.19
2017-08-01T08:09:34.005Z,29.15
2017-08-01T08:12:01.535Z,29.41
2017-08-01T08:14:28.997Z,29.50
2017-08-01T08:16:56.468Z,29.65
2017-08-01T08:19:23.918Z,29.71
2017-08-01T08:21:51.377Z,29.64
2017-08-01T08:24:18.849Z,29.57
2017-08-01T08:26:46.333Z,29.88
2017-08-01T08:29:13.787Z,29.93
2017-08-01T08:31:41.253Z,30.04
2017-08-01T08:34:08.707Z,30.04
2017-08-01T08:36:36.161Z,30.26
2017-08-01T08:39:03.644Z,30.21
2017-08-01T08:41:31.098Z,30.60
2017-08-01T08:43:58.542Z,30.50
2017-08-01T08:49:16.523Z,30.47
2017-08-01T08:51:43.983Z,30.68
2017-08-01T08:54:11.435Z,30.63
2017-08-01T08:56:38.917Z,30.84
2017-08-01T08:59:06.366Z,30.76
2017-08-01T09:01:33.813Z,30.99
2017-08-01T09:04:01.285Z,31.14
2017-08-01T09:06:28.729Z,31.25
2017-08-01T09:08:56.210Z,31.37
2017-08-01T09:11:23.673Z,31.26
2017-08-01T09:13:51.133Z,31.23
2017-08-01T09:16:18.801Z,31.30
2017-08-01T09:18:46.253Z,31.41
2017-08-01T09:21:13.705Z,31.42
2017-08-01T09:23:41.468Z,31.43
2017-08-01T09:26:08.918Z,31.85
2017-08-01T09:28:36.366Z,32.00
2017-08-01T09:31:04.062Z,31.67
2017-08-01T09:33:31.511Z,31.80
2017-08-01T09:35:58.958Z,31.91
2017-08-01T09:38:26.424Z,32.36
2017-08-01T09:40:53.868Z,32.31
2017-08-01T09:43:21.316Z,32.19
2017-08-01T09:45:48.786Z,32.55
2017-08-01T09:48:16.270Z,32.56
2017-08-01T09:50:43.838Z,32.59
2017-08-01T09:53:11.404Z,32.86
2017-08-01T09:55:38.896Z,32.45
2017-08-01T09:58:06.366Z,32.20
2017-08-01T10:00:33.842Z,32.26
2017-08-01T10:03:01.480Z,32.50
2017-08-01T10:05:28.985Z,32.62
2017-08-01T10:07:56.452Z,33.42
2017-08-01T10:10:23.910Z,33.65
2017-08-01T10:12:51.409Z,33.59
2017-08-01T10:15:18.873Z,33.80
2017-08-01T10:17:46.358Z,33.47
2017-08-01T10:20:13.819Z,33.49
2017-08-01T10:22:41.825Z,33.47
2017-08-01T10:25:09.488Z,33.72
2017-08-01T10:27:36.967Z,33.80
2017-08-01T10:30:04.444Z,33.77
2017-08-01T10:35:08.561Z,34.42
2017-08-01T10:37:36.026Z,34.35
2017-08-01T10:40:03.497Z,33.84
2017-08-01T10:42:30.955Z,34.34
2017-08-01T10:44:58.433Z,34.75
2017-08-01T10:47:25.881Z,34.86
2017-08-01T10:49:53.333Z,34.87
2017-08-01T10:52:20.935Z,35.05
2017-08-01T10:54:48.398Z,34.96
2017-08-01T10:57:15.845Z,35.19
2017-08-01T10:59:43.333Z,35.39
2017-08-01T11:02:10.779Z,35.31
2017-08-01T11:04:38.244Z,35.40
2017-08-01T11:07:05.862Z,35.48
2017-08-01T11:09:33.326Z,35.30
2017-08-01T11:12:00.825Z,35.51
2017-08-01T11:14:28.300Z,34.82
2017-08-01T11:16:55.789Z,34.45
2017-08-01T11:19:23.249Z,34.49
2017-08-01T11:21:50.917Z,34.48
2017-08-01T11:24:18.358Z,34.87
2017-08-01T11:26:45.801Z,35.44
2017-08-01T11:29:13.277Z,35.81
2017-08-01T11:31:40.762Z,36.39
2017-08-01T11:34:08.212Z,36.42
2017-08-01T11:36:35.752Z,36.75
2017-08-01T11:39:03.451Z,36.10
2017-08-01T11:41:30.914Z,35.82
2017-08-01T11:43:58.393Z,35.92
2017-08-01T11:46:25.848Z,36.91
2017-08-01T11:48:53.319Z,38.05
2017-08-01T11:51:20.781Z,37.51
2017-08-01T11:53:48.234Z,37.22
2017-08-01T11:56:15.722Z,37.46
2017-08-01T11:58:43.193Z,38.64
2017-08-01T12:01:10.638Z,39.56
2017-08-01T12:03:38.086Z,40.41
2017-08-01T12:06:05.557Z,40.68
2017-08-01T12:08:32.996Z,39.21
2017-08-01T12:11:00.478Z,38.52
2017-08-01T12:13:27.938Z,39.78
2017-08-01T12:15:55.385Z,38.49
2017-08-01T12:18:22.857Z,39.19
2017-08-01T12:20:50.305Z,39.60
2017-08-01T12:23:17.793Z,39.67
2017-08-01T12:25:45.234Z,38.85
2017-08-01T12:28:12.708Z,38.51
2017-08-01T12:30:40.184Z,39.00
2017-08-01T12:33:07.660Z,39.33
2017-08-01T12:35:35.094Z,39.30
2017-08-01T12:38:02.558Z,39.11
2017-08-01T12:40:29.997Z,39.81
2017-08-01T12:42:57.467Z,39.97
2017-08-01T12:45:24.917Z,43.00
2017-08-01T12:47:52.385Z,43.11
2017-08-01T12:50:19.831Z,42.74
2017-08-01T12:52:47.301Z,43.80
2017-08-01T12:55:14.785Z,41.26
2017-08-01T12:57:42.242Z,40.69
2017-08-01T13:00:09.905Z,39.23
2017-08-01T13:02:37.352Z,39.97
2017-08-01T13:05:04.801Z,41.76
2017-08-01T13:07:32.269Z,42.46
2017-08-01T13:09:59.737Z,43.79
2017-08-01T13:12:27.216Z,44.58
2017-08-01T13:14:54.681Z,44.54
2017-08-01T13:17:22.150Z,44.80
2017-08-01T13:19:49.593Z,44.69
2017-08-01T13:22:17.061Z,44.95
2017-08-01T13:24:44.530Z,45.09
2017-08-01T13:27:12.067Z,45.32
2017-08-01T13:29:39.545Z,45.44
2017-08-01T13:32:06.992Z,45.33
2017-08-01T13:34:34.480Z,46.01
2017-08-01T13:37:01.922Z,43.43
2017-08-01T13:39:29.369Z,43.06
2017-08-01T13:41:56.832Z,42.41
2017-08-01T13:44:24.296Z,41.75
2017-08-01T13:46:51.774Z,44.04
2017-08-01T13:49:19.332Z,42.01
2017-08-01T13:51:46.769Z,41.28
2017-08-01T13:54:14.208Z,42.32
2017-08-01T13:56:41.669Z,41.93
2017-08-01T13:59:09.123Z,41.70
2017-08-01T14:01:36.595Z,41.69
2017-08-01T14:04:04.068Z,45.49
2017-08-01T14:06:31.538Z,46.06
2017-08-01T14:08:59.008Z,44.37
2017-08-01T14:11:26.464Z,45.08
2017-08-01T14:13:53.945Z,41.76
2017-08-01T14:16:21.388Z,44.26
2017-08-01T14:18:48.832Z,44.35
2017-08-01T14:21:16.298Z,45.82
2017-08-01T14:23:43.741Z,45.77
2017-08-01T14:26:11.223Z,44.48
2017-08-01T14:28:38.671Z,42.96
2017-08-01T14:33:42.949Z,43.04
2017-08-01T14:36:10.970Z,42.10
2017-08-01T14:38:38.417Z,42.11
2017-08-01T14:41:05.889Z,41.38
2017-08-01T14:43:33.337Z,41.66
2017-08-01T14:46:00.798Z,40.81
2017-08-01T14:48:28.606Z,42.04
2017-08-01T14:50:56.046Z,42.15
2017-08-01T14:53:23.493Z,41.85
2017-08-01T14:55:51.302Z,41.17
2017-08-01T14:58:18.756Z,42.41
2017-08-01T15:00:46.197Z,43.04
2017-08-01T15:03:13.665Z,41.80
2017-08-01T15:05:41.195Z,41.87
2017-08-01T15:08:08.657Z,42.21
2017-08-01T15:10:36.114Z,41.72
2017-08-01T15:13:03.586Z,41.55
2017-08-01T15:15:31.033Z,42.37
2017-08-01T15:17:58.512Z,41.82
2017-08-01T15:20:25.980Z,42.12
2017-08-01T15:22:53.448Z,41.94
2017-08-01T15:25:21.128Z,42.44
2017-08-01T15:27:48.580Z,42.99
2017-08-01T15:30:16.026Z,42.29
2017-08-01T15:32:43.548Z,41.84
2017-08-01T15:35:11.021Z,41.86
2017-08-01T15:37:38.509Z,43.20
2017-08-01T15:40:05.998Z,41.88
2017-08-01T15:42:33.450Z,42.55
2017-08-01T15:45:01.114Z,42.55
2017-08-01T15:47:28.585Z,42.49
2017-08-01T15:49:56.037Z,42.59
2017-08-01T15:52:23.505Z,42.45
2017-08-01T15:54:50.957Z,41.84
2017-08-01T15:57:18.729Z,41.78
2017-08-01T15:59:46.208Z,41.83
2017-08-01T16:02:13.650Z,40.87
2017-08-01T16:04:41.120Z,41.42
2017-08-01T16:07:08.560Z,42.09
2017-08-01T16:09:36.045Z,41.89
2017-08-01T16:12:03.518Z,41.22
2017-08-01T16:14:30.957Z,41.98
2017-08-01T16:16:58.454Z,41.70
2017-08-01T16:19:25.919Z,42.16
2017-08-01T16:21:53.373Z,42.25
2017-08-01T16:24:20.841Z,42.57
2017-08-01T16:26:48.299Z,41.96
2017-08-01T16:29:15.781Z,42.18
2017-08-01T16:31:43.229Z,41.89
2017-08-01T16:34:10.681Z,41.48
2017-08-01T16:36:38.381Z,41.90
2017-08-01T16:39:05.838Z,42.05
2017-08-01T16:41:33.293Z,42.19
2017-08-01T16:44:00.772Z,41.37
2017-08-01T16:46:28.252Z,41.81
2017-08-01T16:48:55.728Z,41.96
2017-08-01T16:51:23.200Z,41.91
2017-08-01T16:53:50.655Z,41.40
2017-08-01T16:56:18.134Z,42.03
2017-08-01T16:58:45.590Z,41.70
2017-08-01T17:01:13.060Z,40.98
2017-08-01T17:03:40.530Z,41.75
2017-08-01T17:06:08.015Z,41.39
2017-08-01T17:08:35.477Z,41.86
2017-08-01T17:11:02.924Z,41.63
2017-08-01T17:13:30.388Z,42.35
2017-08-01T17:15:57.865Z,41.29
2017-08-01T17:18:25.398Z,41.32
2017-08-01T17:20:52.884Z,41.91
2017-08-01T17:23:20.352Z,41.26
2017-08-01T17:25:47.821Z,40.92
2017-08-01T17:28:15.269Z,40.78
2017-08-01T17:30:42.737Z,40.80
2017-08-01T17:33:10.180Z,39.94
2017-08-01T17:35:37.648Z,39.82
2017-08-01T17:38:05.119Z,40.14
2017-08-01T17:40:32.578Z,40.15
2017-08-01T17:43:00.025Z,40.01
2017-08-01T17:45:27.505Z,38.74
2017-08-01T17:47:54.959Z,38.30
2017-08-01T17:50:22.425Z,37.35
2017-08-01T17:52:49.899Z,37.55
2017-08-01T17:55:17.373Z,37.25
2017-08-01T17:57:44.816Z,36.98
2017-08-01T18:00:12.294Z,36.64
2017-08-01T18:02:39.947Z,35.49
2017-08-01T18:05:07.426Z,34.82
2017-08-01T18:07:34.869Z,35.16
2017-08-01T18:10:02.477Z,34.64
2017-08-01T18:12:29.922Z,34.42
2017-08-01T18:14:57.386Z,34.23
2017-08-01T18:17:24.864Z,33.68
2017-08-01T18:19:52.318Z,33.51
2017-08-01T18:22:19.762Z,33.42
2017-08-01T18:24:47.241Z,33.12
2017-08-01T18:27:14.689Z,33.08
2017-08-01T18:29:42.135Z,32.96
2017-08-01T18:32:09.622Z,32.77
2017-08-01T18:34:37.073Z,32.69
2017-08-01T18:37:04.542Z,32.53
2017-08-01T18:39:32.025Z,32.32
2017-08-01T18:41:59.495Z,32.13
2017-08-01T18:44:26.949Z,31.93
2017-08-01T18:46:54.447Z,31.69
2017-08-01T18:49:21.927Z,31.53
2017-08-01T18:51:49.376Z,31.17
2017-08-01T18:54:16.841Z,31.06
2017-08-01T18:56:44.336Z,30.98
2017-08-01T18:59:11.795Z,30.87
2017-08-01T19:01:39.272Z,30.96
2017-08-01T19:04:06.730Z,30.66
2017-08-01T19:06:34.172Z,30.63
2017-08-01T19:09:01.664Z,30.53
2017-08-01T19:11:29.109Z,30.50
2017-08-01T19:13:56.582Z,30.44
2017-08-01T19:16:24.042Z,30.63
2017-08-01T19:18:51.513Z,30.45
2017-08-01T19:21:19.013Z,30.46
2017-08-01T19:23:46.485Z,30.56
2017-08-01T19:26:13.945Z,30.41
2017-08-01T19:28:41.413Z,30.41
2017-08-01T19:31:08.910Z,30.46
2017-08-01T19:33:36.348Z,30.16
2017-08-01T19:36:03.802Z,30.06
2017-08-01T19:38:31.269Z,30.38
2017-08-01T19:40:58.710Z,30.39
2017-08-01T19:43:26.189Z,30.41
2017-08-01T19:45:53.653Z,30.35
2017-08-01T19:48:21.121Z,30.07
2017-08-01T19:50:48.582Z,30.09
2017-08-01T19:53:16.041Z,29.89
2017-08-01T19:55:43.516Z,30.30
2017-08-01T19:58:10.974Z,29.95
2017-08-01T20:00:38.442Z,30.04
2017-08-01T20:03:05.893Z,29.83
2017-08-01T20:05:33.370Z,30.02
2017-08-01T20:08:00.817Z,30.03
2017-08-01T20:10:28.306Z,29.89
2017-08-01T20:12:55.748Z,29.82
2017-08-01T20:15:23.223Z,29.85
2017-08-01T20:17:50.672Z,30.26
2017-08-01T20:20:18.489Z,29.80
2017-08-01T20:22:45.935Z,29.74
2017-08-01T20:25:13.470Z,30.01
2017-08-01T20:27:40.947Z,29.98
2017-08-01T20:30:08.422Z,30.14
2017-08-01T20:32:35.870Z,29.93
2017-08-01T20:35:03.338Z,30.09
2017-08-01T20:37:30.790Z,30.19
2017-08-01T20:39:58.270Z,29.85
2017-08-01T20:42:25.740Z,29.96
2017-08-01T20:44:54.052Z,30.11
2017-08-01T20:47:21.509Z,29.83
2017-08-01T20:49:48.990Z,29.81
2017-08-01T20:52:16.437Z,29.73
2017-08-01T20:54:43.926Z,29.71
2017-08-01T20:57:11.386Z,29.54
2017-08-01T20:59:38.870Z,29.39
2017-08-01T21:02:06.884Z,29.32
2017-08-01T21:04:34.381Z,29.39
2017-08-01T21:07:01.825Z,29.34
2017-08-01T21:09:29.314Z,29.26
2017-08-01T21:11:57.662Z,29.30
2017-08-01T21:14:25.559Z,29.14
2017-08-01T21:16:53.173Z,29.36
2017-08-01T21:19:21.800Z,29.25
2017-08-01T21:21:49.846Z,29.19
2017-08-01T21:24:17.373Z,29.07
2017-08-01T21:26:44.845Z,29.09
2017-08-01T21:29:12.332Z,29.05
2017-08-01T21:31:39.793Z,29.08
2017-08-01T21:34:07.270Z,29.05
2017-08-01T21:36:34.757Z,29.19
2017-08-01T21:39:02.225Z,29.09
2017-08-01T21:41:29.732Z,28.82
2017-08-01T21:43:57.188Z,28.75
2017-08-01T21:46:24.789Z,28.85
2017-08-01T21:48:52.238Z,29.50
2017-08-01T21:51:19.699Z,30.10
2017-08-01T21:53:47.166Z,29.84
2017-08-01T21:56:14.624Z,29.58
2017-08-01T21:58:42.098Z,29.42
2017-08-01T22:01:09.569Z,29.30
2017-08-01T22:03:37.070Z,29.71
2017-08-01T22:06:04.553Z,29.65
2017-08-01T22:08:32.013Z,29.20
2017-08-01T22:10:59.489Z,28.78
2017-08-01T22:13:26.946Z,28.41
2017-08-01T22:15:54.414Z,28.27
2017-08-01T22:18:22.086Z,28.15
2017-08-01T22:20:49.530Z,28.00
2017-08-01T22:23:16.975Z,27.93
2017-08-01T22:25:44.437Z,27.92
2017-08-01T22:28:13.159Z,27.90
2017-08-01T22:30:40.779Z,27.83
2017-08-01T22:33:08.225Z,27.77
2017-08-01T22:35:35.680Z,27.68
2017-08-01T22:38:03.155Z,27.55
2017-08-01T22:40:30.600Z,27.42
2017-08-01T22:42:58.064Z,27.39
2017-08-01T22:45:25.544Z,27.39
2017-08-01T22:47:52.993Z,27.26
2017-08-01T22:50:20.470Z,27.23
2017-08-01T22:52:48.153Z,27.18
2017-08-01T22:55:15.617Z,27.10
2017-08-01T22:57:43.065Z,27.08
2017-08-01T23:00:10.515Z,27.08
2017-08-01T23:02:37.987Z,26.94
2017-08-01T23:05:05.437Z,26.90
2017-08-01T23:07:32.893Z,26.83
2017-08-01T23:10:00.345Z,26.89
2017-08-01T23:12:27.985Z,26.89
2017-08-01T23:14:55.433Z,27.01
2017-08-01T23:17:22.876Z,26.82
2017-08-01T23:19:50.723Z,26.86
2017-08-01T23:22:18.163Z,26.95
2017-08-01T23:24:45.611Z,26.88
2017-08-01T23:27:13.084Z,26.73
2017-08-01T23:29:40.530Z,26.87
2017-08-01T23:32:07.997Z,26.57
2017-08-01T23:34:35.465Z,26.75
2017-08-01T23:37:02.920Z,26.55
2017-08-01T23:39:30.395Z,26.49
2017-08-01T23:41:57.860Z,26.22
2017-08-01T23:44:25.300Z,26.26
2017-08-01T23:46:52.740Z,26.45
2017-08-01T23:49:20.208Z,26.33
2017-08-01T23:51:47.701Z,26.22
2017-08-01T23:54:15.151Z,26.20
2017-08-01T23:56:42.605Z,26.07
2017-08-01T23:59:10.073Z,25.86
